Terminal Aerodrome Forecast
Issued by NWS

Home | Current Version | Previous Version | Text Only | Print | Product List | Glossary On
Versions: 1 2 3 4 5 6 7 8 9 10 11 12 13
000
FTUS45 KRIW 231100
TAFCPR
TAF
KCPR 231127Z 2312/2412 27009KT P6SM SCT090
     FM231700 30014G24KT P6SM VCSH SCT060 BKN100
     FM240200 27011KT P6SM SCT100
     FM240800 23015KT P6SM SCT120=

USA.gov is the U.S. government's official web portal to all federal, state and local government web resources and services.